Time;durP1;ratioP1;P1;durP2;ratioP2;P2;SDS_P1;SDS_P2;PMS_P1;PMS_P2;Temp;Humidity;BMP_temperature;BMP_pressure;BME280_temperature;BME280_humidity;BME280_pressure;Samples;Min_cycle;Max_cycle;Signal;HPM_P1;HPM_P2
2022/12/12 00:01:38;;;;;;;;;;;;;;;5.12;59.54;101017.44;5029773;28;124461;-66
2022/12/12 00:04:05;;;;;;;;;;;;;;;5.12;59.84;101014.81;5005759;27;123698;-65
2022/12/12 00:06:32;;;;;;;;;;;;;;;5.12;59.78;101025.31;5028281;27;113659;-65
2022/12/12 00:09:00;;;;;;;;;;;;;;;5.13;59.80;101023.56;5026613;28;113645;-65
2022/12/12 00:11:27;;;;;;;;;;;;;;;5.11;59.45;101018.34;5027854;28;124120;-65
2022/12/12 00:13:54;;;;;;;;;;;;;;;5.10;59.49;101021.84;5029041;28;124143;-65
2022/12/12 00:16:21;;;;;;;;;;;;;;;5.09;59.42;101020.16;5028585;28;115534;-65
2022/12/12 00:18:49;;;;;;;;;;;;;;;5.07;59.67;101022.78;5027360;28;113501;-65
2022/12/12 00:21:17;;;;;;;;;;;;;;;5.05;59.32;101034.22;5027044;28;124797;-65
2022/12/12 00:23:44;;;;;;;;;;;;;;;5.04;59.25;101021.97;5026913;28;123784;-65
2022/12/12 00:26:22;;;;;;;;;;;;;;;5.01;59.65;101027.28;5029799;28;114457;-65
2022/12/12 00:28:49;;;;;;;;;;;;;;;5.00;59.36;101022.94;5028145;28;113739;-66
2022/12/12 00:31:16;;;;;;;;;;;;;;;4.99;59.85;101023.81;5029336;28;124445;-65
2022/12/12 00:33:45;;;;;;;;;;;;;;;4.99;59.42;101018.56;5025837;28;124245;-65
2022/12/12 00:36:12;;;;;;;;;;;;;;;5.00;59.47;101020.31;5028538;27;113688;-65
2022/12/12 00:38:39;;;;;;;;;;;;;;;5.00;59.76;101025.56;5030111;28;113489;-65
2022/12/12 00:41:06;;;;;;;;;;;;;;;4.98;59.29;101027.34;5027356;28;124358;-66
2022/12/12 00:43:33;;;;;;;;;;;;;;;4.98;59.77;101032.59;5027277;28;123431;-65
2022/12/12 00:46:00;;;;;;;;;;;;;;;4.99;59.44;101029.06;5027860;28;114566;-65
2022/12/12 00:48:29;;;;;;;;;;;;;;;4.98;59.71;101032.59;5027099;28;113991;-66
2022/12/12 00:50:56;;;;;;;;;;;;;;;4.97;59.43;101025.63;5029075;28;124597;-66
2022/12/12 00:53:23;;;;;;;;;;;;;;;4.94;59.15;101020.44;5027876;28;123838;-65
2022/12/12 00:55:53;;;;;;;;;;;;;;;4.90;59.60;101026.63;5026635;28;114561;-64
2022/12/12 00:58:20;;;;;;;;;;;;;;;4.87;59.55;101025.78;5023658;28;113652;-65
2022/12/12 01:00:47;;;;;;;;;;;;;;;4.84;59.21;101030.22;5026602;28;124448;-65
2022/12/12 01:03:14;;;;;;;;;;;;;;;4.78;59.16;101031.19;5027054;28;124206;-66
2022/12/12 01:05:41;;;;;;;;;;;;;;;4.75;59.14;101038.28;5026891;27;114357;-64
2022/12/12 01:08:08;;;;;;;;;;;;;;;4.70;59.31;101027.84;5028367;28;114703;-65
2022/12/12 01:10:35;;;;;;;;;;;;;;;4.67;59.48;101033.16;5028800;28;125915;-65
2022/12/12 01:13:02;;;;;;;;;;;;;;;4.63;59.18;101031.47;5024001;28;124902;-65
2022/12/12 01:15:29;;;;;;;;;;;;;;;4.61;59.48;101039.38;5029186;27;116973;-65
2022/12/12 01:17:55;;;;;;;;;;;;;;;4.57;59.49;101031.59;5028180;27;112437;-65
2022/12/12 01:20:24;;;;;;;;;;;;;;;4.54;59.34;101042.13;5025927;28;124659;-65
2022/12/12 01:22:51;;;;;;;;;;;;;;;4.49;59.02;101045.69;5027145;28;124194;-65
2022/12/12 01:25:19;;;;;;;;;;;;;;;4.44;59.35;101047.53;5027715;27;114386;-65
2022/12/12 01:27:45;;;;;;;;;;;;;;;4.41;59.31;101052.84;5020094;27;113648;-65
2022/12/12 01:30:14;;;;;;;;;;;;;;;4.37;59.33;101051.16;5013898;27;124203;-65
2022/12/12 01:32:41;;;;;;;;;;;;;;;4.34;59.34;101051.19;5024753;28;123384;-66
2022/12/12 01:35:08;;;;;;;;;;;;;;;4.29;59.32;101058.25;5026694;28;114687;-66
2022/12/12 01:37:37;;;;;;;;;;;;;;;4.28;59.67;101067.03;5026763;28;113626;-65
2022/12/12 01:40:05;;;;;;;;;;;;;;;4.24;59.01;101066.22;5023766;28;124532;-65
2022/12/12 01:42:32;;;;;;;;;;;;;;;4.21;59.54;101068.00;5026686;28;124147;-65
2022/12/12 01:45:00;;;;;;;;;;;;;;;4.18;59.47;101070.66;5022828;28;115367;-65
2022/12/12 01:47:27;;;;;;;;;;;;;;;4.15;59.54;101065.50;5028492;28;113976;-66
2022/12/12 01:50:04;;;;;;;;;;;;;;;4.12;58.91;101068.16;5023179;28;123873;-66
2022/12/12 01:52:43;;;;;;;;;;;;;;;4.08;59.38;101076.03;5026826;27;123637;-65
2022/12/12 01:55:13;;;;;;;;;;;;;;;4.04;59.50;101069.13;5013328;28;115324;-65
2022/12/12 01:57:43;;;;;;;;;;;;;;;4.01;59.47;101079.66;5026438;28;115531;-65
2022/12/12 02:00:10;;;;;;;;;;;;;;;4.00;59.51;101083.16;5023743;28;124337;-65
2022/12/12 02:02:38;;;;;;;;;;;;;;;3.97;59.49;101083.19;5024629;28;124199;-66
2022/12/12 02:05:10;;;;;;;;;;;;;;;3.94;59.57;101083.25;5025417;28;115186;-66
2022/12/12 02:07:38;;;;;;;;;;;;;;;3.92;59.46;101085.03;5026050;28;114448;-65
2022/12/12 02:10:05;;;;;;;;;;;;;;;3.90;59.50;101081.56;5025091;28;125577;-66
2022/12/12 02:12:32;;;;;;;;;;;;;;;3.87;59.26;101081.59;5026839;27;124158;-66
2022/12/12 02:14:59;;;;;;;;;;;;;;;3.86;59.54;101085.09;5024798;28;114461;-66
2022/12/12 02:17:32;;;;;;;;;;;;;;;3.84;59.34;101086.88;5025588;27;113694;-66
2022/12/12 02:20:04;;;;;;;;;;;;;;;3.80;59.52;101082.56;5024554;27;124331;-64
2022/12/12 02:22:31;;;;;;;;;;;;;;;3.79;59.63;101079.09;5027070;28;125025;-66
2022/12/12 02:25:04;;;;;;;;;;;;;;;3.77;59.54;101085.19;5029848;28;114051;-64
2022/12/12 02:27:42;;;;;;;;;;;;;;;3.75;59.32;101076.50;5027434;28;113791;-66
2022/12/12 02:30:11;;;;;;;;;;;;;;;3.73;59.61;101073.94;5025470;28;124027;-66
2022/12/12 02:32:44;;;;;;;;;;;;;;;3.73;59.69;101083.53;5030556;28;125538;-66
2022/12/12 02:35:10;;;;;;;;;;;;;;;3.70;59.44;101090.53;5029068;28;114388;-66
2022/12/12 02:37:44;;;;;;;;;;;;;;;3.67;59.28;101090.59;5031655;28;113742;-66
2022/12/12 02:40:11;;;;;;;;;;;;;;;3.67;59.69;101090.59;5027511;28;124225;-66
2022/12/12 02:42:42;;;;;;;;;;;;;;;3.64;59.52;101090.63;5025002;28;123996;-66
2022/12/12 02:45:15;;;;;;;;;;;;;;;3.62;59.60;101087.16;5028567;28;114952;-65
2022/12/12 02:47:46;;;;;;;;;;;;;;;3.59;59.55;101081.94;5025322;28;114214;-66
2022/12/12 02:50:17;;;;;;;;;;;;;;;3.56;59.50;101087.25;5027073;28;125164;-65
2022/12/12 02:52:45;;;;;;;;;;;;;;;3.54;59.54;101083.75;5026480;28;125364;-66
2022/12/12 02:55:13;;;;;;;;;;;;;;;3.52;59.38;101075.03;5031127;28;114784;-65
2022/12/12 02:57:40;;;;;;;;;;;;;;;3.50;59.79;101076.81;5026388;28;113513;-65
2022/12/12 03:00:09;;;;;;;;;;;;;;;3.46;59.48;101080.34;5030912;28;124321;-65
2022/12/12 03:02:47;;;;;;;;;;;;;;;3.44;59.45;101074.28;5027424;28;124850;-66
2022/12/12 03:08:12;;;;;;;;;;;;;;;3.38;59.41;101082.22;5027430;28;114463;-65
2022/12/12 03:10:42;;;;;;;;;;;;;;;3.36;59.54;101084.84;5029356;28;124405;-65
2022/12/12 03:13:31;;;;;;;;;;;;;;;3.33;59.43;101086.63;5030069;28;124482;-65
2022/12/12 03:16:17;;;;;;;;;;;;;;;3.31;59.49;101082.28;5028883;28;114330;-65
2022/12/12 03:18:55;;;;;;;;;;;;;;;3.29;59.42;101084.03;5028958;28;116869;-65
2022/12/12 03:21:46;;;;;;;;;;;;;;;3.29;59.58;101084.03;5026914;28;124451;-66
2022/12/12 03:24:24;;;;;;;;;;;;;;;3.27;59.62;101085.81;5026455;28;125848;-66
2022/12/12 03:26:54;;;;;;;;;;;;;;;3.24;59.40;101091.09;5027235;28;114908;-66
2022/12/12 03:29:26;;;;;;;;;;;;;;;3.22;59.35;101086.72;5013284;27;112743;-65
2022/12/12 03:31:57;;;;;;;;;;;;;;;3.19;59.35;101087.66;5026476;27;124461;-65
2022/12/12 03:34:26;;;;;;;;;;;;;;;3.18;59.26;101091.13;5026488;28;124145;-66
2022/12/12 03:36:58;;;;;;;;;;;;;;;3.15;59.36;101085.09;5029461;28;115780;-66
2022/12/12 03:39:51;;;;;;;;;;;;;;;3.11;59.35;101085.13;5028951;28;116644;-65
2022/12/12 03:42:21;;;;;;;;;;;;;;;3.10;59.19;101098.22;5026653;28;125435;-65
2022/12/12 03:45:08;;;;;;;;;;;;;;;3.06;59.45;101096.50;5025354;28;123765;-66
2022/12/12 03:47:50;;;;;;;;;;;;;;;3.04;59.35;101098.28;5015818;27;114289;-66
2022/12/12 03:50:21;;;;;;;;;;;;;;;3.03;59.41;101096.53;5028586;28;114499;-65
2022/12/12 03:52:57;;;;;;;;;;;;;;;3.00;59.48;101101.81;5024167;28;124812;-65
2022/12/12 03:55:37;;;;;;;;;;;;;;;2.97;59.57;101112.28;5029637;28;124230;-65
2022/12/12 03:58:08;;;;;;;;;;;;;;;2.92;59.52;101105.34;5028248;28;114596;-66
2022/12/12 04:00:38;;;;;;;;;;;;;;;2.90;59.45;101101.91;5028464;27;114387;-66
2022/12/12 04:03:10;;;;;;;;;;;;;;;2.90;59.39;101101.00;5023381;28;125138;-66
2022/12/12 04:08:38;;;;;;;;;;;;;;;2.85;59.69;101098.44;5027524;28;114882;-65
2022/12/12 04:14:23;;;;;;;;;;;;;;;2.79;59.49;101108.97;5026055;28;124054;-65
2022/12/12 04:16:59;;;;;;;;;;;;;;;2.75;59.36;101102.03;5025997;28;124808;-65
2022/12/12 04:25:25;;;;;;;;;;;;;;;2.66;59.56;101112.56;5025797;28;123947;-65
2022/12/12 04:27:54;;;;;;;;;;;;;;;2.64;59.63;101114.34;5024603;28;124195;-65
2022/12/12 04:30:21;;;;;;;;;;;;;;;2.63;59.46;101108.22;5027249;28;114670;-64
2022/12/12 04:32:58;;;;;;;;;;;;;;;2.60;59.42;101109.97;5027867;27;112804;-65
2022/12/12 04:35:30;;;;;;;;;;;;;;;2.58;59.68;101103.91;5021784;28;124279;-65
2022/12/12 04:38:01;;;;;;;;;;;;;;;2.56;59.71;101105.66;5027510;28;124550;-65
2022/12/12 04:40:30;;;;;;;;;;;;;;;2.55;59.50;101109.16;5025157;28;114436;-65
2022/12/12 04:42:58;;;;;;;;;;;;;;;2.51;59.38;101114.41;5026341;27;113561;-65
2022/12/12 04:45:32;;;;;;;;;;;;;;;2.48;59.47;101114.44;5029071;28;124535;-65
2022/12/12 04:48:00;;;;;;;;;;;;;;;2.47;59.49;101117.06;5029063;28;124740;-65
2022/12/12 04:50:28;;;;;;;;;;;;;;;2.45;59.60;101121.41;5045977;27;113408;-66
2022/12/12 04:52:56;;;;;;;;;;;;;;;2.42;59.37;101122.31;5028822;28;113486;-66
2022/12/12 04:55:28;;;;;;;;;;;;;;;2.39;59.37;101135.41;5027473;27;124120;-65
2022/12/12 04:57:55;;;;;;;;;;;;;;;2.36;59.66;101124.97;5025996;28;123945;-65
2022/12/12 05:00:23;;;;;;;;;;;;;;;2.35;59.50;101133.69;5026815;28;114652;-65
2022/12/12 05:02:50;;;;;;;;;;;;;;;2.34;59.68;101126.75;5026517;28;114926;-66
2022/12/12 05:05:18;;;;;;;;;;;;;;;2.33;59.48;101131.06;5025767;28;124067;-66
2022/12/12 05:07:52;;;;;;;;;;;;;;;2.32;59.52;101133.72;5027829;28;124680;-66
2022/12/12 05:10:19;;;;;;;;;;;;;;;2.30;59.55;101130.25;5024669;28;113924;-66
2022/12/12 05:12:47;;;;;;;;;;;;;;;2.29;59.40;101133.72;5029351;28;113623;-66
2022/12/12 05:15:15;;;;;;;;;;;;;;;2.27;59.70;101135.50;5023363;28;124866;-65
2022/12/12 05:17:46;;;;;;;;;;;;;;;2.27;59.53;101130.25;5026013;28;124320;-64
2022/12/12 05:20:14;;;;;;;;;;;;;;;2.24;59.51;101127.66;5023766;28;115607;-65
2022/12/12 05:22:41;;;;;;;;;;;;;;;2.22;59.52;101122.44;5029161;28;115294;-66
2022/12/12 05:25:08;;;;;;;;;;;;;;;2.21;59.71;101130.31;5026663;28;124040;-66
2022/12/12 05:27:35;;;;;;;;;;;;;;;2.18;59.52;101130.31;5027642;27;124258;-66
2022/12/12 05:30:02;;;;;;;;;;;;;;;2.16;59.51;101126.84;5028269;28;114464;-64
2022/12/12 05:32:29;;;;;;;;;;;;;;;2.13;59.47;101126.00;5028578;28;113282;-65
2022/12/12 05:34:56;;;;;;;;;;;;;;;2.13;59.56;101130.34;5026354;28;124380;-65
2022/12/12 05:37:23;;;;;;;;;;;;;;;2.11;59.52;101125.13;5025601;28;124873;-65
2022/12/12 05:39:50;;;;;;;;;;;;;;;2.09;59.42;101132.13;5028690;28;114854;-65
2022/12/12 05:42:16;;;;;;;;;;;;;;;2.08;59.49;101130.38;5023932;28;114256;-65
2022/12/12 05:44:43;;;;;;;;;;;;;;;2.07;59.53;101123.41;5025181;27;123588;-66
2022/12/12 05:47:10;;;;;;;;;;;;;;;2.08;59.61;101135.59;5023393;28;124594;-65
2022/12/12 05:49:37;;;;;;;;;;;;;;;2.06;59.66;101137.34;5027382;28;114663;-65
2022/12/12 05:52:05;;;;;;;;;;;;;;;2.05;59.53;101140.81;5025359;28;113950;-65
2022/12/12 05:54:31;;;;;;;;;;;;;;;2.02;59.47;101135.63;5027206;27;124024;-65
2022/12/12 05:56:58;;;;;;;;;;;;;;;2.00;59.57;101147.84;5030391;28;124085;-64
2022/12/12 05:59:26;;;;;;;;;;;;;;;1.99;59.52;101142.63;5031913;28;114603;-65
2022/12/12 06:01:52;;;;;;;;;;;;;;;1.97;59.46;101145.22;5029699;28;114100;-65
2022/12/12 06:04:19;;;;;;;;;;;;;;;1.96;59.61;101140.91;5031683;28;125025;-65
2022/12/12 06:06:46;;;;;;;;;;;;;;;1.93;59.58;101143.50;5029509;28;123174;-66
2022/12/12 06:09:14;;;;;;;;;;;;;;;1.91;59.43;101142.66;5029922;28;115689;-65
2022/12/12 06:11:41;;;;;;;;;;;;;;;1.90;59.62;101146.13;5030719;28;115420;-65
2022/12/12 06:14:09;;;;;;;;;;;;;;;1.89;59.61;101154.84;5030520;28;124712;-66
2022/12/12 06:16:36;;;;;;;;;;;;;;;1.88;59.54;101153.97;5030454;28;125074;-65
2022/12/12 06:19:03;;;;;;;;;;;;;;;1.87;59.55;101154.00;5030378;27;113328;-66
2022/12/12 06:21:31;;;;;;;;;;;;;;;1.83;59.43;101160.97;5027673;28;113975;-65
2022/12/12 06:23:58;;;;;;;;;;;;;;;1.82;59.37;101147.91;5027922;28;126278;-65
2022/12/12 06:26:24;;;;;;;;;;;;;;;1.80;59.50;101147.91;5028449;28;123884;-65
2022/12/12 06:28:51;;;;;;;;;;;;;;;1.77;59.47;101160.09;5028713;28;114229;-64
2022/12/12 06:31:18;;;;;;;;;;;;;;;1.75;59.50;101158.38;5031399;28;113751;-65
2022/12/12 06:33:45;;;;;;;;;;;;;;;1.73;59.50;101159.25;5031323;28;124583;-65
2022/12/12 06:36:15;;;;;;;;;;;;;;;1.72;59.57;101173.19;5029656;28;123962;-65
2022/12/12 06:38:42;;;;;;;;;;;;;;;1.69;59.45;101168.81;5027304;28;115218;-65
2022/12/12 06:41:11;;;;;;;;;;;;;;;1.68;59.54;101167.09;5028295;28;113931;-65
2022/12/12 06:43:38;;;;;;;;;;;;;;;1.68;59.54;101172.34;5029144;27;124838;-65
2022/12/12 06:46:06;;;;;;;;;;;;;;;1.66;59.57;101174.09;5029116;27;123026;-66
2022/12/12 06:48:34;;;;;;;;;;;;;;;1.64;59.40;101170.63;5031079;28;114156;-66
2022/12/12 06:51:04;;;;;;;;;;;;;;;1.62;59.55;101176.69;5031504;27;113844;-66
2022/12/12 06:53:31;;;;;;;;;;;;;;;1.59;59.40;101172.34;5029516;28;123529;-65
2022/12/12 06:55:58;;;;;;;;;;;;;;;1.58;59.54;101181.03;5028966;28;123670;-65
2022/12/12 06:58:25;;;;;;;;;;;;;;;1.56;59.49;101177.56;5028769;28;115409;-66
2022/12/12 07:00:52;;;;;;;;;;;;;;;1.54;59.53;101179.31;5026458;28;114981;-65
2022/12/12 07:03:19;;;;;;;;;;;;;;;1.53;59.61;101182.81;5030123;28;124072;-65
2022/12/12 07:05:46;;;;;;;;;;;;;;;1.52;59.51;101188.91;5029178;28;124322;-65
2022/12/12 07:08:14;;;;;;;;;;;;;;;1.51;59.61;101189.78;5028643;28;114437;-67
2022/12/12 07:10:41;;;;;;;;;;;;;;;1.51;59.66;101200.22;5030066;28;114120;-67
2022/12/12 07:13:08;;;;;;;;;;;;;;;1.49;59.58;101204.59;5029966;28;124644;-65
2022/12/12 07:15:42;;;;;;;;;;;;;;;1.48;59.56;101195.00;5025758;28;123962;-65
2022/12/12 07:18:09;;;;;;;;;;;;;;;1.47;59.48;101201.09;5027494;28;114463;-64
2022/12/12 07:20:40;;;;;;;;;;;;;;;1.46;59.50;101201.97;5027362;28;114470;-65
2022/12/12 07:23:07;;;;;;;;;;;;;;;1.45;59.55;101197.59;5023980;28;124306;-65
2022/12/12 07:25:38;;;;;;;;;;;;;;;1.44;59.49;101193.28;5027135;28;123435;-65
2022/12/12 07:28:05;;;;;;;;;;;;;;;1.42;59.51;101200.25;5028889;28;115430;-65
2022/12/12 07:30:32;;;;;;;;;;;;;;;1.42;59.67;101208.06;5028470;28;114451;-65
2022/12/12 07:32:59;;;;;;;;;;;;;;;1.42;59.76;101200.25;5025274;28;123717;-65
2022/12/12 07:35:27;;;;;;;;;;;;;;;1.41;59.47;101208.94;5021341;28;123779;-66
2022/12/12 07:37:55;;;;;;;;;;;;;;;1.41;59.48;101206.31;5028384;28;114817;-65
2022/12/12 07:40:22;;;;;;;;;;;;;;;1.39;59.56;101205.47;5028208;28;113934;-65
2022/12/12 07:42:49;;;;;;;;;;;;;;;1.38;59.39;101209.81;5024476;28;125843;-65
2022/12/12 07:45:16;;;;;;;;;;;;;;;1.36;59.42;101207.19;5027683;28;124740;-65
2022/12/12 07:47:44;;;;;;;;;;;;;;;1.38;59.62;101214.16;5026606;28;115025;-64
2022/12/12 07:50:12;;;;;;;;;;;;;;;1.34;59.50;101219.38;5028100;28;114806;-65
2022/12/12 07:52:39;;;;;;;;;;;;;;;1.33;59.40;101217.63;5026359;27;122939;-65
2022/12/12 07:55:06;;;;;;;;;;;;;;;1.30;59.44;101217.66;5027380;28;124185;-65
2022/12/12 07:57:33;;;;;;;;;;;;;;;1.29;59.59;101226.34;5028335;27;114809;-65
2022/12/12 08:00:00;;;;;;;;;;;;;;;1.28;59.51;101224.63;5029387;28;113844;-65
2022/12/12 08:02:27;;;;;;;;;;;;;;;1.28;59.55;101232.44;5029088;28;124669;-65
2022/12/12 08:04:54;;;;;;;;;;;;;;;1.28;59.68;101229.84;5025791;28;124478;-66
2022/12/12 08:07:21;;;;;;;;;;;;;;;1.30;59.59;101233.31;5027793;28;115246;-65
2022/12/12 08:09:47;;;;;;;;;;;;;;;1.31;59.66;101245.47;5028736;28;113918;-67
2022/12/12 08:12:14;;;;;;;;;;;;;;;1.31;59.49;101235.03;5027014;28;122227;-65
2022/12/12 08:14:41;;;;;;;;;;;;;;;1.31;59.47;101245.47;5022298;27;124443;-65
2022/12/12 08:17:08;;;;;;;;;;;;;;;1.29;59.52;101247.22;5027324;28;114556;-65
2022/12/12 08:19:35;;;;;;;;;;;;;;;1.27;59.43;101246.34;5024912;27;113925;-65
2022/12/12 08:22:02;;;;;;;;;;;;;;;1.25;59.42;101245.47;5028221;27;125009;-66
2022/12/12 08:24:29;;;;;;;;;;;;;;;1.26;59.61;101251.56;5025790;27;123867;-65
2022/12/12 08:26:56;;;;;;;;;;;;;;;1.26;59.41;101249.84;5018549;28;114153;-65
2022/12/12 08:29:22;;;;;;;;;;;;;;;1.27;59.62;101248.09;5024981;28;113627;-65
2022/12/12 08:31:49;;;;;;;;;;;;;;;1.28;59.74;101250.72;5030066;28;124693;-66
2022/12/12 08:34:17;;;;;;;;;;;;;;;1.29;59.66;101252.44;5026938;28;122758;-66
2022/12/12 08:36:44;;;;;;;;;;;;;;;1.31;59.67;101250.69;5029057;28;114492;-65
2022/12/12 08:39:12;;;;;;;;;;;;;;;1.32;59.55;101252.44;5024018;28;113741;-66
2022/12/12 08:41:40;;;;;;;;;;;;;;;1.35;59.52;101252.41;5020812;28;124909;-65
2022/12/12 08:44:08;;;;;;;;;;;;;;;1.36;59.72;101243.72;5025509;28;124312;-66
2022/12/12 08:46:36;;;;;;;;;;;;;;;1.39;59.66;101257.66;5028357;28;114376;-65
2022/12/12 08:49:05;;;;;;;;;;;;;;;1.41;59.74;101245.47;5028952;27;97033;-66
2022/12/12 08:51:33;;;;;;;;;;;;;;;1.42;59.59;101247.22;5027386;28;124702;-65
2022/12/12 08:54:00;;;;;;;;;;;;;;;1.45;59.73;101247.19;5028496;28;124716;-66
2022/12/12 08:56:27;;;;;;;;;;;;;;;1.46;59.59;101243.72;5028288;28;114445;-65
2022/12/12 08:58:53;;;;;;;;;;;;;;;1.47;59.61;101250.66;5028247;28;114714;-65
2022/12/12 09:01:22;;;;;;;;;;;;;;;1.48;59.72;101241.97;5029951;28;124185;-65
2022/12/12 09:03:51;;;;;;;;;;;;;;;1.51;59.70;101247.22;5020588;28;124100;-66
2022/12/12 09:06:18;;;;;;;;;;;;;;;1.55;59.79;101248.94;5027728;28;114499;-66
2022/12/12 09:08:46;;;;;;;;;;;;;;;1.58;59.72;101254.13;5028592;27;113298;-67
2022/12/12 09:11:13;;;;;;;;;;;;;;;1.59;59.79;101250.66;5015388;28;124282;-68
2022/12/12 09:13:40;;;;;;;;;;;;;;;1.59;59.68;101255.88;5018434;28;124900;-68
2022/12/12 09:16:07;;;;;;;;;;;;;;;1.60;59.74;101252.41;5039575;27;114891;-69
2022/12/12 09:18:34;;;;;;;;;;;;;;;1.62;59.73;101255.91;5031592;28;116020;-68
2022/12/12 09:21:01;;;;;;;;;;;;;;;1.64;59.65;101259.38;5023235;28;124390;-69
2022/12/12 09:23:28;;;;;;;;;;;;;;;1.67;59.67;101259.34;5025044;28;124942;-67
2022/12/12 09:25:55;;;;;;;;;;;;;;;1.70;59.84;101264.56;5024861;27;114816;-67
2022/12/12 09:28:23;;;;;;;;;;;;;;;1.75;59.87;101268.06;5024085;27;115320;-67
2022/12/12 09:30:50;;;;;;;;;;;;;;;1.80;59.79;101265.41;5030651;28;123255;-68
2022/12/12 09:33:18;;;;;;;;;;;;;;;1.84;59.74;101271.50;5028840;28;124028;-68
2022/12/12 09:35:45;;;;;;;;;;;;;;;1.90;59.83;101271.50;5012912;28;114925;-68
2022/12/12 09:38:12;;;;;;;;;;;;;;;1.93;60.04;101266.28;5031337;28;113943;-67
2022/12/12 09:40:46;;;;;;;;;;;;;;;1.96;59.96;101268.88;5032519;28;124044;-66
2022/12/12 09:43:16;;;;;;;;;;;;;;;2.00;59.88;101268.00;5027893;28;123938;-65
2022/12/12 09:45:43;;;;;;;;;;;;;;;2.05;59.55;101270.59;5031425;27;113492;-66
2022/12/12 09:48:15;;;;;;;;;;;;;;;2.10;59.99;101267.06;5030778;28;114085;-66
2022/12/12 09:50:46;;;;;;;;;;;;;;;2.17;59.65;101274.88;5028618;28;123541;-66
2022/12/12 09:53:15;;;;;;;;;;;;;;;2.21;59.71;101274.03;5023104;27;124348;-67
2022/12/12 09:55:49;;;;;;;;;;;;;;;2.25;59.68;101271.38;5029589;27;114538;-68
2022/12/12 09:58:25;;;;;;;;;;;;;;;2.30;59.96;101266.16;5043542;27;112585;-68
2022/12/12 10:00:55;;;;;;;;;;;;;;;2.36;59.72;101266.13;5029254;27;124500;-67
2022/12/12 10:03:40;;;;;;;;;;;;;;;2.40;59.72;101266.97;5030540;28;124139;-67
2022/12/12 10:06:08;;;;;;;;;;;;;;;2.44;59.87;101269.56;5024376;28;114289;-68
2022/12/12 10:09:20;;;;;;;;;;;;;;;2.48;59.94;101260.81;5029660;27;113032;-67
2022/12/12 10:11:50;;;;;;;;;;;;;;;2.55;59.86;101263.44;5024964;28;124351;-68
2022/12/12 10:14:25;;;;;;;;;;;;;;;2.60;59.91;101262.53;5029133;28;127137;-68
2022/12/12 10:16:53;;;;;;;;;;;;;;;2.66;59.73;101254.63;5027808;28;115344;-67
2022/12/12 10:19:27;;;;;;;;;;;;;;;2.74;59.83;101251.97;5027342;28;115052;-68
2022/12/12 10:21:57;;;;;;;;;;;;;;;2.80;59.91;101241.47;5029769;28;123822;-67
2022/12/12 10:24:23;;;;;;;;;;;;;;;2.87;59.83;101248.41;5026212;28;124223;-67
2022/12/12 10:26:51;;;;;;;;;;;;;;;2.92;59.98;101238.78;5028009;27;114612;-67
2022/12/12 10:29:19;;;;;;;;;;;;;;;2.98;59.74;101234.38;5026795;28;113872;-68
2022/12/12 10:32:04;;;;;;;;;;;;;;;3.05;59.80;101241.28;5020034;28;124420;-67
2022/12/12 10:34:31;;;;;;;;;;;;;;;3.10;59.95;101234.28;5025983;28;124921;-68
2022/12/12 10:37:07;;;;;;;;;;;;;;;3.15;59.75;101227.28;5011743;28;114232;-68
2022/12/12 10:39:42;;;;;;;;;;;;;;;3.22;59.85;101239.44;5024268;27;113791;-68
2022/12/12 10:42:39;;;;;;;;;;;;;;;3.30;59.75;101237.59;5020859;28;124214;-69
2022/12/12 10:45:18;;;;;;;;;;;;;;;3.38;59.83;101234.06;5010056;28;124350;-68
2022/12/12 10:47:45;;;;;;;;;;;;;;;3.44;59.95;101228.75;5023219;28;114612;-68
2022/12/12 10:50:19;;;;;;;;;;;;;;;3.48;59.59;101225.22;5030432;27;112715;-68
2022/12/12 10:52:46;;;;;;;;;;;;;;;3.53;59.74;101223.44;5017149;27;124077;-67
2022/12/12 10:55:22;;;;;;;;;;;;;;;3.58;59.96;101229.50;5029362;27;124286;-67
2022/12/12 10:58:00;;;;;;;;;;;;;;;3.64;59.69;101224.19;5025832;27;114124;-67
2022/12/12 11:00:32;;;;;;;;;;;;;;;3.69;59.84;101222.41;5025522;28;112596;-67
2022/12/12 11:03:09;;;;;;;;;;;;;;;3.76;59.73;101219.72;5026413;28;125209;-67
2022/12/12 11:05:37;;;;;;;;;;;;;;;3.82;59.75;101224.88;5024896;28;124002;-68
2022/12/12 11:08:05;;;;;;;;;;;;;;;3.87;59.74;101223.06;5023036;27;114617;-67
2022/12/12 11:10:34;;;;;;;;;;;;;;;3.93;59.71;101217.75;5029979;28;115076;-68
2022/12/12 11:13:12;;;;;;;;;;;;;;;4.00;60.10;101216.81;5027700;27;124316;-68
2022/12/12 11:15:43;;;;;;;;;;;;;;;4.09;59.87;101214.06;5021527;28;123207;-68
2022/12/12 11:18:14;;;;;;;;;;;;;;;4.17;59.93;101215.75;5028940;27;114770;-69
2022/12/12 11:20:46;;;;;;;;;;;;;;;4.22;59.57;101213.91;5027946;28;113088;-70
2022/12/12 11:23:22;;;;;;;;;;;;;;;4.27;59.77;101217.34;5022120;27;125113;-69
2022/12/12 11:25:53;;;;;;;;;;;;;;;4.32;59.91;101214.69;5022421;27;123501;-67
2022/12/12 11:28:22;;;;;;;;;;;;;;;4.37;59.79;101207.59;5025236;28;114778;-69
2022/12/12 11:30:51;;;;;;;;;;;;;;;4.41;59.53;101211.94;5028482;28;114108;-68
2022/12/12 11:33:20;;;;;;;;;;;;;;;4.45;59.66;101222.34;5029696;28;124824;-68
2022/12/12 11:35:52;;;;;;;;;;;;;;;4.50;59.64;101219.66;5030693;28;125342;-68
2022/12/12 11:38:45;;;;;;;;;;;;;;;4.57;59.91;101220.44;5022496;28;114303;-69
2022/12/12 11:41:12;;;;;;;;;;;;;;;4.63;59.60;101212.47;5028237;28;113648;-68
2022/12/12 11:43:48;;;;;;;;;;;;;;;4.69;59.65;101215.03;5027784;27;125887;-67
2022/12/12 11:46:17;;;;;;;;;;;;;;;4.73;59.73;101211.47;5011507;28;124772;-68
2022/12/12 11:48:50;;;;;;;;;;;;;;;4.80;59.65;101207.88;5028977;28;115283;-68
2022/12/12 11:51:31;;;;;;;;;;;;;;;4.85;59.67;101203.41;5026250;28;113433;-69
2022/12/12 11:53:58;;;;;;;;;;;;;;;4.90;59.62;101202.44;5026353;28;124886;-67
2022/12/12 11:56:30;;;;;;;;;;;;;;;4.95;59.77;101205.88;5022872;27;124183;-67
2022/12/12 11:59:09;;;;;;;;;;;;;;;4.99;59.76;101204.94;5024786;27;115794;-66
2022/12/12 12:01:39;;;;;;;;;;;;;;;5.06;59.92;101196.06;5019914;28;114675;-66
2022/12/12 12:04:16;;;;;;;;;;;;;;;5.11;59.54;101190.75;5026880;27;123143;-67
2022/12/12 12:06:51;;;;;;;;;;;;;;;5.18;59.53;101193.25;5028112;28;124574;-66
2022/12/12 12:09:27;;;;;;;;;;;;;;;5.20;59.31;101191.47;5022742;28;114557;-66
2022/12/12 12:12:04;;;;;;;;;;;;;;;5.25;59.73;101189.63;5020047;27;114359;-65
2022/12/12 12:14:43;;;;;;;;;;;;;;;5.31;59.71;101198.28;5020279;28;124341;-66
2022/12/12 12:17:17;;;;;;;;;;;;;;;5.36;59.58;101206.94;5022277;28;124843;-66
2022/12/12 12:19:52;;;;;;;;;;;;;;;5.42;59.33;101204.22;5022016;28;114940;-66
2022/12/12 12:22:19;;;;;;;;;;;;;;;5.45;59.23;101204.16;5021182;28;113744;-66
2022/12/12 12:24:46;;;;;;;;;;;;;;;5.48;59.60;101196.22;5026211;27;123082;-66
2022/12/12 12:27:13;;;;;;;;;;;;;;;5.54;59.31;101197.84;5027098;28;123954;-66
2022/12/12 12:30:00;;;;;;;;;;;;;;;5.57;59.37;101190.78;5022341;27;114327;-66
2022/12/12 12:32:45;;;;;;;;;;;;;;;5.62;59.26;101188.94;5023054;28;115565;-66
2022/12/12 12:35:18;;;;;;;;;;;;;;;5.66;59.29;101190.63;5006093;28;124566;-66
2022/12/12 12:37:54;;;;;;;;;;;;;;;5.70;59.49;101196.69;5019745;28;125327;-66
2022/12/12 12:40:44;;;;;;;;;;;;;;;5.71;58.97;101187.03;5004997;28;115383;-65
2022/12/12 12:43:30;;;;;;;;;;;;;;;5.71;58.97;101187.03;5017565;28;113837;-67
2022/12/12 12:46:12;;;;;;;;;;;;;;;5.70;59.02;101190.56;5006414;28;124113;-66
2022/12/12 12:48:43;;;;;;;;;;;;;;;5.73;59.15;101180.00;5020557;28;123868;-66
2022/12/12 12:51:19;;;;;;;;;;;;;;;5.76;59.10;101180.78;5013593;28;115477;-66
2022/12/12 12:53:47;;;;;;;;;;;;;;;5.78;59.19;101188.66;5027986;27;114776;-66
2022/12/12 12:56:23;;;;;;;;;;;;;;;5.80;59.20;101186.84;5029251;28;123528;-66
2022/12/12 12:58:54;;;;;;;;;;;;;;;5.85;59.25;101185.00;5029473;28;124133;-66
2022/12/12 13:01:41;;;;;;;;;;;;;;;5.90;59.34;101177.91;5010805;28;114441;-66
2022/12/12 13:04:27;;;;;;;;;;;;;;;5.91;59.03;101174.34;5006289;28;113918;-66
2022/12/12 13:07:10;;;;;;;;;;;;;;;5.91;58.89;101169.09;5006718;28;124267;-66